sensor_id;sensor_type;location;lat;lon;timestamp;temperature;humidity
18694;DHT22;9477;51.414;10.362;2023-04-03T00:00:46;6.90;66.00
18694;DHT22;9477;51.414;10.362;2023-04-03T00:02:51;6.90;66.10
18694;DHT22;9477;51.414;10.362;2023-04-03T00:04:54;6.90;66.20
18694;DHT22;9477;51.414;10.362;2023-04-03T00:06:57;6.90;66.00
18694;DHT22;9477;51.414;10.362;2023-04-03T00:09:00;6.80;65.80
18694;DHT22;9477;51.414;10.362;2023-04-03T00:11:03;6.80;66.00
18694;DHT22;9477;51.414;10.362;2023-04-03T00:13:07;6.70;66.10
18694;DHT22;9477;51.414;10.362;2023-04-03T00:15:11;6.70;66.40
18694;DHT22;9477;51.414;10.362;2023-04-03T00:17:14;6.60;66.30
18694;DHT22;9477;51.414;10.362;2023-04-03T00:19:18;6.50;66.90
18694;DHT22;9477;51.414;10.362;2023-04-03T00:21:21;6.40;66.40
18694;DHT22;9477;51.414;10.362;2023-04-03T00:23:24;6.30;66.40
18694;DHT22;9477;51.414;10.362;2023-04-03T00:25:27;6.30;66.70
18694;DHT22;9477;51.414;10.362;2023-04-03T00:27:30;6.30;66.90
18694;DHT22;9477;51.414;10.362;2023-04-03T00:29:32;6.30;66.90
18694;DHT22;9477;51.414;10.362;2023-04-03T00:31:37;6.00;66.90
18694;DHT22;9477;51.414;10.362;2023-04-03T00:33:40;5.90;67.20
18694;DHT22;9477;51.414;10.362;2023-04-03T00:35:43;6.00;67.60
18694;DHT22;9477;51.414;10.362;2023-04-03T00:37:46;5.90;67.40
18694;DHT22;9477;51.414;10.362;2023-04-03T00:39:49;5.80;67.20
18694;DHT22;9477;51.414;10.362;2023-04-03T00:41:52;5.70;67.50
18694;DHT22;9477;51.414;10.362;2023-04-03T00:43:55;5.70;67.60
18694;DHT22;9477;51.414;10.362;2023-04-03T00:45:59;5.80;67.70
18694;DHT22;9477;51.414;10.362;2023-04-03T00:48:06;5.70;67.60
18694;DHT22;9477;51.414;10.362;2023-04-03T00:50:09;5.70;67.60
18694;DHT22;9477;51.414;10.362;2023-04-03T00:52:15;5.70;67.60
18694;DHT22;9477;51.414;10.362;2023-04-03T00:54:18;5.60;67.60
18694;DHT22;9477;51.414;10.362;2023-04-03T00:56:24;5.50;67.70
18694;DHT22;9477;51.414;10.362;2023-04-03T00:58:32;5.50;67.80
18694;DHT22;9477;51.414;10.362;2023-04-03T01:00:37;5.40;67.90
18694;DHT22;9477;51.414;10.362;2023-04-03T01:02:41;5.30;67.80
18694;DHT22;9477;51.414;10.362;2023-04-03T01:04:45;5.30;68.00
18694;DHT22;9477;51.414;10.362;2023-04-03T01:06:48;5.30;68.10
18694;DHT22;9477;51.414;10.362;2023-04-03T01:08:52;5.30;68.20
18694;DHT22;9477;51.414;10.362;2023-04-03T01:10:55;5.20;68.20
18694;DHT22;9477;51.414;10.362;2023-04-03T01:13:00;5.30;68.10
18694;DHT22;9477;51.414;10.362;2023-04-03T01:15:05;5.20;68.20
18694;DHT22;9477;51.414;10.362;2023-04-03T01:17:26;5.10;68.10
18694;DHT22;9477;51.414;10.362;2023-04-03T01:19:30;5.10;68.20
18694;DHT22;9477;51.414;10.362;2023-04-03T01:21:58;5.10;68.20
18694;DHT22;9477;51.414;10.362;2023-04-03T01:24:20;5.00;68.00
18694;DHT22;9477;51.414;10.362;2023-04-03T01:26:24;5.00;68.10
18694;DHT22;9477;51.414;10.362;2023-04-03T01:28:31;5.00;68.10
18694;DHT22;9477;51.414;10.362;2023-04-03T01:30:36;5.00;68.10
18694;DHT22;9477;51.414;10.362;2023-04-03T01:32:42;4.90;68.00
18694;DHT22;9477;51.414;10.362;2023-04-03T01:34:45;4.80;68.10
18694;DHT22;9477;51.414;10.362;2023-04-03T01:36:48;4.80;68.30
18694;DHT22;9477;51.414;10.362;2023-04-03T01:38:53;4.80;68.30
18694;DHT22;9477;51.414;10.362;2023-04-03T01:40:56;4.70;68.40
18694;DHT22;9477;51.414;10.362;2023-04-03T01:42:59;4.70;68.60
18694;DHT22;9477;51.414;10.362;2023-04-03T01:45:03;4.70;68.60
18694;DHT22;9477;51.414;10.362;2023-04-03T01:47:06;4.70;68.60
18694;DHT22;9477;51.414;10.362;2023-04-03T01:49:10;4.70;68.50
18694;DHT22;9477;51.414;10.362;2023-04-03T01:51:14;4.70;68.50
18694;DHT22;9477;51.414;10.362;2023-04-03T01:53:17;4.70;68.40
18694;DHT22;9477;51.414;10.362;2023-04-03T01:55:20;4.70;68.30
18694;DHT22;9477;51.414;10.362;2023-04-03T01:57:23;4.60;68.40
18694;DHT22;9477;51.414;10.362;2023-04-03T01:59:26;4.50;68.60
18694;DHT22;9477;51.414;10.362;2023-04-03T02:01:29;4.50;68.80
18694;DHT22;9477;51.414;10.362;2023-04-03T02:03:32;4.50;68.80
18694;DHT22;9477;51.414;10.362;2023-04-03T02:05:37;4.30;69.10
18694;DHT22;9477;51.414;10.362;2023-04-03T02:07:40;4.40;69.10
18694;DHT22;9477;51.414;10.362;2023-04-03T02:09:43;4.30;69.00
18694;DHT22;9477;51.414;10.362;2023-04-03T02:11:46;4.30;69.00
18694;DHT22;9477;51.414;10.362;2023-04-03T02:13:49;4.40;69.00
18694;DHT22;9477;51.414;10.362;2023-04-03T02:15:52;4.40;69.00
18694;DHT22;9477;51.414;10.362;2023-04-03T02:17:55;4.40;68.90
18694;DHT22;9477;51.414;10.362;2023-04-03T02:19:58;4.40;68.90
18694;DHT22;9477;51.414;10.362;2023-04-03T02:22:02;4.30;68.80
18694;DHT22;9477;51.414;10.362;2023-04-03T02:24:05;4.30;69.00
18694;DHT22;9477;51.414;10.362;2023-04-03T02:26:10;4.30;69.00
18694;DHT22;9477;51.414;10.362;2023-04-03T02:28:14;4.40;68.90
18694;DHT22;9477;51.414;10.362;2023-04-03T02:30:17;4.30;68.80
18694;DHT22;9477;51.414;10.362;2023-04-03T02:32:20;4.30;68.90
18694;DHT22;9477;51.414;10.362;2023-04-03T02:34:22;4.30;68.90
18694;DHT22;9477;51.414;10.362;2023-04-03T02:36:26;4.20;69.00
18694;DHT22;9477;51.414;10.362;2023-04-03T02:38:30;4.20;69.00
18694;DHT22;9477;51.414;10.362;2023-04-03T02:40:33;4.20;68.90
18694;DHT22;9477;51.414;10.362;2023-04-03T02:42:36;4.10;69.00
18694;DHT22;9477;51.414;10.362;2023-04-03T02:44:39;4.10;69.20
18694;DHT22;9477;51.414;10.362;2023-04-03T02:46:42;4.00;69.20
18694;DHT22;9477;51.414;10.362;2023-04-03T02:48:45;4.00;69.20
18694;DHT22;9477;51.414;10.362;2023-04-03T02:50:48;4.00;69.20
18694;DHT22;9477;51.414;10.362;2023-04-03T02:52:51;3.90;69.30
18694;DHT22;9477;51.414;10.362;2023-04-03T02:54:55;3.90;69.30
18694;DHT22;9477;51.414;10.362;2023-04-03T02:56:58;3.90;69.60
18694;DHT22;9477;51.414;10.362;2023-04-03T02:59:01;3.90;69.30
18694;DHT22;9477;51.414;10.362;2023-04-03T03:01:04;3.80;69.30
18694;DHT22;9477;51.414;10.362;2023-04-03T03:03:07;3.70;69.60
18694;DHT22;9477;51.414;10.362;2023-04-03T03:05:10;3.70;69.80
18694;DHT22;9477;51.414;10.362;2023-04-03T03:07:13;3.80;69.80
18694;DHT22;9477;51.414;10.362;2023-04-03T03:09:16;3.80;69.60
18694;DHT22;9477;51.414;10.362;2023-04-03T03:11:20;3.80;69.30
18694;DHT22;9477;51.414;10.362;2023-04-03T03:13:23;4.00;69.50
18694;DHT22;9477;51.414;10.362;2023-04-03T03:15:26;3.80;69.20
18694;DHT22;9477;51.414;10.362;2023-04-03T03:17:30;3.80;69.20
18694;DHT22;9477;51.414;10.362;2023-04-03T03:19:33;3.80;69.20
18694;DHT22;9477;51.414;10.362;2023-04-03T03:21:36;3.80;69.20
18694;DHT22;9477;51.414;10.362;2023-04-03T03:23:39;3.70;69.10
18694;DHT22;9477;51.414;10.362;2023-04-03T03:25:42;3.70;69.10
18694;DHT22;9477;51.414;10.362;2023-04-03T03:27:46;3.80;69.20
18694;DHT22;9477;51.414;10.362;2023-04-03T03:29:49;3.80;68.80
18694;DHT22;9477;51.414;10.362;2023-04-03T03:31:52;3.80;68.80
18694;DHT22;9477;51.414;10.362;2023-04-03T03:33:55;3.70;68.60
18694;DHT22;9477;51.414;10.362;2023-04-03T03:35:57;3.70;68.60
18694;DHT22;9477;51.414;10.362;2023-04-03T03:38:00;3.70;68.80
18694;DHT22;9477;51.414;10.362;2023-04-03T03:40:04;3.70;68.70
18694;DHT22;9477;51.414;10.362;2023-04-03T03:42:07;3.60;68.80
18694;DHT22;9477;51.414;10.362;2023-04-03T03:44:11;3.70;69.00
18694;DHT22;9477;51.414;10.362;2023-04-03T03:46:16;3.70;68.70
18694;DHT22;9477;51.414;10.362;2023-04-03T03:48:19;3.60;68.70
18694;DHT22;9477;51.414;10.362;2023-04-03T03:50:22;3.50;68.70
18694;DHT22;9477;51.414;10.362;2023-04-03T03:52:25;3.50;68.70
18694;DHT22;9477;51.414;10.362;2023-04-03T03:54:28;3.50;68.90
18694;DHT22;9477;51.414;10.362;2023-04-03T03:56:32;3.50;68.90
18694;DHT22;9477;51.414;10.362;2023-04-03T03:58:35;3.50;69.00
18694;DHT22;9477;51.414;10.362;2023-04-03T04:00:39;3.40;69.10
18694;DHT22;9477;51.414;10.362;2023-04-03T04:02:42;3.40;69.20
18694;DHT22;9477;51.414;10.362;2023-04-03T04:04:45;3.50;69.20
18694;DHT22;9477;51.414;10.362;2023-04-03T04:06:48;3.50;69.30
18694;DHT22;9477;51.414;10.362;2023-04-03T04:08:52;3.50;69.10
18694;DHT22;9477;51.414;10.362;2023-04-03T04:10:55;3.40;68.90
18694;DHT22;9477;51.414;10.362;2023-04-03T04:12:58;3.40;69.00
18694;DHT22;9477;51.414;10.362;2023-04-03T04:15:01;3.40;69.00
18694;DHT22;9477;51.414;10.362;2023-04-03T04:17:05;3.50;69.00
18694;DHT22;9477;51.414;10.362;2023-04-03T04:19:08;3.50;68.90
18694;DHT22;9477;51.414;10.362;2023-04-03T04:21:11;3.40;68.80
18694;DHT22;9477;51.414;10.362;2023-04-03T04:23:15;3.30;68.90
18694;DHT22;9477;51.414;10.362;2023-04-03T04:25:18;3.20;69.30
18694;DHT22;9477;51.414;10.362;2023-04-03T04:27:21;3.10;69.20
18694;DHT22;9477;51.414;10.362;2023-04-03T04:29:24;3.10;69.30
18694;DHT22;9477;51.414;10.362;2023-04-03T04:31:27;3.10;70.00
18694;DHT22;9477;51.414;10.362;2023-04-03T04:33:31;3.00;69.50
18694;DHT22;9477;51.414;10.362;2023-04-03T04:35:34;3.10;69.70
18694;DHT22;9477;51.414;10.362;2023-04-03T04:37:38;3.20;69.60
18694;DHT22;9477;51.414;10.362;2023-04-03T04:39:41;3.20;69.60
18694;DHT22;9477;51.414;10.362;2023-04-03T04:41:44;3.20;69.50
18694;DHT22;9477;51.414;10.362;2023-04-03T04:43:47;3.20;69.40
18694;DHT22;9477;51.414;10.362;2023-04-03T04:46:00;3.20;69.50
18694;DHT22;9477;51.414;10.362;2023-04-03T04:48:03;3.10;69.90
18694;DHT22;9477;51.414;10.362;2023-04-03T04:50:09;3.10;69.90
18694;DHT22;9477;51.414;10.362;2023-04-03T04:52:12;3.20;70.00
18694;DHT22;9477;51.414;10.362;2023-04-03T04:54:16;3.10;70.00
18694;DHT22;9477;51.414;10.362;2023-04-03T04:56:19;3.10;70.30
18694;DHT22;9477;51.414;10.362;2023-04-03T04:58:22;3.10;70.30
18694;DHT22;9477;51.414;10.362;2023-04-03T05:00:25;3.20;70.40
18694;DHT22;9477;51.414;10.362;2023-04-03T05:02:28;3.20;70.40
18694;DHT22;9477;51.414;10.362;2023-04-03T05:04:31;3.20;70.10
18694;DHT22;9477;51.414;10.362;2023-04-03T05:06:36;3.30;70.20
18694;DHT22;9477;51.414;10.362;2023-04-03T05:08:39;3.30;70.30
18694;DHT22;9477;51.414;10.362;2023-04-03T05:10:42;3.40;70.30
18694;DHT22;9477;51.414;10.362;2023-04-03T05:12:45;3.30;70.40
18694;DHT22;9477;51.414;10.362;2023-04-03T05:14:47;3.30;70.50
18694;DHT22;9477;51.414;10.362;2023-04-03T05:16:50;3.40;70.40
18694;DHT22;9477;51.414;10.362;2023-04-03T05:18:55;3.50;70.30
18694;DHT22;9477;51.414;10.362;2023-04-03T05:20:58;3.50;70.40
18694;DHT22;9477;51.414;10.362;2023-04-03T05:23:02;3.50;70.50
18694;DHT22;9477;51.414;10.362;2023-04-03T05:25:06;3.60;70.50
18694;DHT22;9477;51.414;10.362;2023-04-03T05:27:09;3.70;70.50
18694;DHT22;9477;51.414;10.362;2023-04-03T05:29:12;3.70;70.50
18694;DHT22;9477;51.414;10.362;2023-04-03T05:31:15;3.80;70.50
18694;DHT22;9477;51.414;10.362;2023-04-03T05:33:18;4.00;70.40
18694;DHT22;9477;51.414;10.362;2023-04-03T05:35:21;4.10;70.30
18694;DHT22;9477;51.414;10.362;2023-04-03T05:37:24;4.10;70.20
18694;DHT22;9477;51.414;10.362;2023-04-03T05:39:28;4.10;70.10
18694;DHT22;9477;51.414;10.362;2023-04-03T05:41:33;4.20;70.10
18694;DHT22;9477;51.414;10.362;2023-04-03T05:43:36;4.20;70.10
18694;DHT22;9477;51.414;10.362;2023-04-03T05:45:40;4.20;70.10
18694;DHT22;9477;51.414;10.362;2023-04-03T05:47:46;4.30;70.00
18694;DHT22;9477;51.414;10.362;2023-04-03T05:49:49;4.30;70.50
18694;DHT22;9477;51.414;10.362;2023-04-03T05:51:52;4.40;69.70
18694;DHT22;9477;51.414;10.362;2023-04-03T05:53:59;4.50;69.80
18694;DHT22;9477;51.414;10.362;2023-04-03T05:56:05;4.60;69.90
18694;DHT22;9477;51.414;10.362;2023-04-03T05:58:08;4.70;69.80
18694;DHT22;9477;51.414;10.362;2023-04-03T06:00:13;4.80;69.50
18694;DHT22;9477;51.414;10.362;2023-04-03T06:02:19;4.80;69.30
18694;DHT22;9477;51.414;10.362;2023-04-03T06:04:23;4.80;69.30
18694;DHT22;9477;51.414;10.362;2023-04-03T06:06:26;4.90;69.30
18694;DHT22;9477;51.414;10.362;2023-04-03T06:08:44;4.90;69.20
18694;DHT22;9477;51.414;10.362;2023-04-03T06:10:47;4.90;68.90
18694;DHT22;9477;51.414;10.362;2023-04-03T06:12:52;5.00;68.90
18694;DHT22;9477;51.414;10.362;2023-04-03T06:14:54;5.00;68.50
18694;DHT22;9477;51.414;10.362;2023-04-03T06:16:57;5.10;68.70
18694;DHT22;9477;51.414;10.362;2023-04-03T06:19:01;5.20;68.70
18694;DHT22;9477;51.414;10.362;2023-04-03T06:21:04;5.20;68.50
18694;DHT22;9477;51.414;10.362;2023-04-03T06:23:09;5.30;68.70
18694;DHT22;9477;51.414;10.362;2023-04-03T06:25:12;5.40;68.80
18694;DHT22;9477;51.414;10.362;2023-04-03T06:27:15;5.50;68.60
18694;DHT22;9477;51.414;10.362;2023-04-03T06:29:20;5.60;69.00
18694;DHT22;9477;51.414;10.362;2023-04-03T06:31:23;5.70;68.30
18694;DHT22;9477;51.414;10.362;2023-04-03T06:33:26;5.70;67.90
18694;DHT22;9477;51.414;10.362;2023-04-03T06:35:29;5.70;67.60
18694;DHT22;9477;51.414;10.362;2023-04-03T06:37:32;5.80;67.70
18694;DHT22;9477;51.414;10.362;2023-04-03T06:39:35;5.80;67.50
18694;DHT22;9477;51.414;10.362;2023-04-03T06:41:39;5.70;67.20
18694;DHT22;9477;51.414;10.362;2023-04-03T06:43:42;5.60;66.20
18694;DHT22;9477;51.414;10.362;2023-04-03T06:45:46;5.70;67.10
18694;DHT22;9477;51.414;10.362;2023-04-03T06:47:49;5.60;66.40
18694;DHT22;9477;51.414;10.362;2023-04-03T06:49:52;5.70;66.70
18694;DHT22;9477;51.414;10.362;2023-04-03T06:51:55;5.80;66.90
18694;DHT22;9477;51.414;10.362;2023-04-03T06:53:59;5.90;66.70
18694;DHT22;9477;51.414;10.362;2023-04-03T06:56:02;5.80;66.60
18694;DHT22;9477;51.414;10.362;2023-04-03T06:58:05;6.10;66.90
18694;DHT22;9477;51.414;10.362;2023-04-03T07:00:10;6.20;66.80
18694;DHT22;9477;51.414;10.362;2023-04-03T07:02:14;6.30;66.70
18694;DHT22;9477;51.414;10.362;2023-04-03T07:04:18;6.30;66.20
18694;DHT22;9477;51.414;10.362;2023-04-03T07:06:22;6.30;65.90
18694;DHT22;9477;51.414;10.362;2023-04-03T07:08:28;6.30;65.90
18694;DHT22;9477;51.414;10.362;2023-04-03T07:10:31;6.30;65.30
18694;DHT22;9477;51.414;10.362;2023-04-03T07:12:34;6.30;65.00
18694;DHT22;9477;51.414;10.362;2023-04-03T07:14:37;6.20;64.40
18694;DHT22;9477;51.414;10.362;2023-04-03T07:16:40;6.10;64.90
18694;DHT22;9477;51.414;10.362;2023-04-03T07:18:45;6.20;65.10
18694;DHT22;9477;51.414;10.362;2023-04-03T07:20:48;5.90;63.40
18694;DHT22;9477;51.414;10.362;2023-04-03T07:22:51;5.80;63.90
18694;DHT22;9477;51.414;10.362;2023-04-03T07:24:54;6.00;64.80
18694;DHT22;9477;51.414;10.362;2023-04-03T07:26:57;5.90;64.30
18694;DHT22;9477;51.414;10.362;2023-04-03T07:29:00;6.00;64.40
18694;DHT22;9477;51.414;10.362;2023-04-03T07:31:04;6.10;64.60
18694;DHT22;9477;51.414;10.362;2023-04-03T07:33:09;6.10;64.00
18694;DHT22;9477;51.414;10.362;2023-04-03T07:35:14;6.10;63.70
18694;DHT22;9477;51.414;10.362;2023-04-03T07:37:18;6.20;64.30
18694;DHT22;9477;51.414;10.362;2023-04-03T07:39:21;6.30;64.40
18694;DHT22;9477;51.414;10.362;2023-04-03T07:41:24;6.40;64.30
18694;DHT22;9477;51.414;10.362;2023-04-03T07:43:26;6.50;64.10
18694;DHT22;9477;51.414;10.362;2023-04-03T07:45:30;6.60;64.00
18694;DHT22;9477;51.414;10.362;2023-04-03T07:47:33;6.70;64.20
18694;DHT22;9477;51.414;10.362;2023-04-03T07:49:35;7.00;64.40
18694;DHT22;9477;51.414;10.362;2023-04-03T07:51:42;7.10;64.00
18694;DHT22;9477;51.414;10.362;2023-04-03T07:53:45;7.10;63.10
18694;DHT22;9477;51.414;10.362;2023-04-03T07:55:49;7.20;63.40
18694;DHT22;9477;51.414;10.362;2023-04-03T07:57:56;7.40;63.50
18694;DHT22;9477;51.414;10.362;2023-04-03T07:59:59;7.60;63.60
18694;DHT22;9477;51.414;10.362;2023-04-03T08:02:02;7.70;63.00
18694;DHT22;9477;51.414;10.362;2023-04-03T08:04:06;7.90;63.10
18694;DHT22;9477;51.414;10.362;2023-04-03T08:06:09;8.30;63.40
18694;DHT22;9477;51.414;10.362;2023-04-03T08:08:20;8.70;63.20
18694;DHT22;9477;51.414;10.362;2023-04-03T08:10:23;9.00;62.90
18694;DHT22;9477;51.414;10.362;2023-04-03T08:12:26;9.00;61.70
18694;DHT22;9477;51.414;10.362;2023-04-03T08:14:30;8.90;60.70
18694;DHT22;9477;51.414;10.362;2023-04-03T08:16:35;9.00;61.00
18694;DHT22;9477;51.414;10.362;2023-04-03T08:18:39;9.10;60.90
18694;DHT22;9477;51.414;10.362;2023-04-03T08:20:42;9.00;60.70
18694;DHT22;9477;51.414;10.362;2023-04-03T08:22:46;8.90;60.30
18694;DHT22;9477;51.414;10.362;2023-04-03T08:24:50;9.00;60.60
18694;DHT22;9477;51.414;10.362;2023-04-03T08:27:00;9.10;60.30
18694;DHT22;9477;51.414;10.362;2023-04-03T08:29:03;9.30;60.30
18694;DHT22;9477;51.414;10.362;2023-04-03T08:31:09;9.30;59.80
18694;DHT22;9477;51.414;10.362;2023-04-03T08:33:13;9.30;58.80
18694;DHT22;9477;51.414;10.362;2023-04-03T08:35:16;9.50;59.70
18694;DHT22;9477;51.414;10.362;2023-04-03T08:37:19;9.80;60.40
18694;DHT22;9477;51.414;10.362;2023-04-03T08:39:22;9.90;60.00
18694;DHT22;9477;51.414;10.362;2023-04-03T08:41:33;10.00;58.70
18694;DHT22;9477;51.414;10.362;2023-04-03T08:43:43;9.90;59.20
18694;DHT22;9477;51.414;10.362;2023-04-03T08:45:53;9.80;58.20
18694;DHT22;9477;51.414;10.362;2023-04-03T08:48:00;10.00;58.40
18694;DHT22;9477;51.414;10.362;2023-04-03T08:50:11;10.50;58.90
18694;DHT22;9477;51.414;10.362;2023-04-03T08:52:17;10.90;58.40
18694;DHT22;9477;51.414;10.362;2023-04-03T08:54:25;11.00;56.70
18694;DHT22;9477;51.414;10.362;2023-04-03T08:56:33;10.80;55.70
18694;DHT22;9477;51.414;10.362;2023-04-03T08:58:41;10.70;55.70
18694;DHT22;9477;51.414;10.362;2023-04-03T09:00:50;10.60;56.70
18694;DHT22;9477;51.414;10.362;2023-04-03T09:02:55;10.60;56.80
18694;DHT22;9477;51.414;10.362;2023-04-03T09:04:58;10.40;55.60
18694;DHT22;9477;51.414;10.362;2023-04-03T09:07:07;10.60;55.80
18694;DHT22;9477;51.414;10.362;2023-04-03T09:09:14;10.50;55.80
18694;DHT22;9477;51.414;10.362;2023-04-03T09:11:22;10.40;55.10
18694;DHT22;9477;51.414;10.362;2023-04-03T09:13:33;10.40;54.90
18694;DHT22;9477;51.414;10.362;2023-04-03T09:15:40;10.40;54.70
18694;DHT22;9477;51.414;10.362;2023-04-03T09:17:53;10.60;55.30
18694;DHT22;9477;51.414;10.362;2023-04-03T09:20:04;10.50;54.60
18694;DHT22;9477;51.414;10.362;2023-04-03T09:22:17;10.40;54.40
18694;DHT22;9477;51.414;10.362;2023-04-03T09:24:22;10.40;54.60
18694;DHT22;9477;51.414;10.362;2023-04-03T09:26:30;10.40;53.90
18694;DHT22;9477;51.414;10.362;2023-04-03T09:28:38;10.50;53.80
18694;DHT22;9477;51.414;10.362;2023-04-03T09:30:50;10.70;54.10
18694;DHT22;9477;51.414;10.362;2023-04-03T09:32:55;10.80;53.70
18694;DHT22;9477;51.414;10.362;2023-04-03T09:35:01;10.70;53.10
18694;DHT22;9477;51.414;10.362;2023-04-03T09:37:37;10.90;54.20
18694;DHT22;9477;51.414;10.362;2023-04-03T09:39:50;11.20;54.60
18694;DHT22;9477;51.414;10.362;2023-04-03T09:41:59;11.30;53.40
18694;DHT22;9477;51.414;10.362;2023-04-03T09:44:19;11.50;54.20
18694;DHT22;9477;51.414;10.362;2023-04-03T09:46:29;11.40;53.60
18694;DHT22;9477;51.414;10.362;2023-04-03T09:48:32;11.30;54.10
18694;DHT22;9477;51.414;10.362;2023-04-03T09:50:36;11.30;54.30
18694;DHT22;9477;51.414;10.362;2023-04-03T09:52:40;11.20;53.50
18694;DHT22;9477;51.414;10.362;2023-04-03T09:54:44;10.80;52.80
18694;DHT22;9477;51.414;10.362;2023-04-03T09:56:49;10.70;53.40
18694;DHT22;9477;51.414;10.362;2023-04-03T09:59:08;10.60;53.60
18694;DHT22;9477;51.414;10.362;2023-04-03T10:01:25;10.30;52.50
18694;DHT22;9477;51.414;10.362;2023-04-03T10:03:31;10.30;53.30
18694;DHT22;9477;51.414;10.362;2023-04-03T10:05:37;10.30;53.20
18694;DHT22;9477;51.414;10.362;2023-04-03T10:07:43;10.10;52.50
18694;DHT22;9477;51.414;10.362;2023-04-03T10:10:00;10.40;54.20
18694;DHT22;9477;51.414;10.362;2023-04-03T10:12:04;10.80;54.40
18694;DHT22;9477;51.414;10.362;2023-04-03T10:14:17;10.80;53.70
18694;DHT22;9477;51.414;10.362;2023-04-03T10:16:23;10.70;53.00
18694;DHT22;9477;51.414;10.362;2023-04-03T10:18:33;10.40;52.80
18694;DHT22;9477;51.414;10.362;2023-04-03T10:20:44;10.20;52.80
18694;DHT22;9477;51.414;10.362;2023-04-03T10:22:56;10.20;53.00
18694;DHT22;9477;51.414;10.362;2023-04-03T10:25:08;10.40;53.60
18694;DHT22;9477;51.414;10.362;2023-04-03T10:27:20;10.60;54.10
18694;DHT22;9477;51.414;10.362;2023-04-03T10:29:38;10.90;53.80
18694;DHT22;9477;51.414;10.362;2023-04-03T10:31:45;11.00;53.10
18694;DHT22;9477;51.414;10.362;2023-04-03T10:34:01;11.30;53.80
18694;DHT22;9477;51.414;10.362;2023-04-03T10:36:16;11.60;54.40
18694;DHT22;9477;51.414;10.362;2023-04-03T10:38:30;11.90;54.10
18694;DHT22;9477;51.414;10.362;2023-04-03T10:40:40;12.00;52.90
18694;DHT22;9477;51.414;10.362;2023-04-03T10:42:50;12.20;53.20
18694;DHT22;9477;51.414;10.362;2023-04-03T10:45:14;11.90;51.80
18694;DHT22;9477;51.414;10.362;2023-04-03T10:47:21;11.70;52.20
18694;DHT22;9477;51.414;10.362;2023-04-03T10:49:35;11.60;53.00
18694;DHT22;9477;51.414;10.362;2023-04-03T10:52:02;11.50;52.40
18694;DHT22;9477;51.414;10.362;2023-04-03T10:54:11;11.50;52.80
18694;DHT22;9477;51.414;10.362;2023-04-03T10:56:18;11.50;53.40
18694;DHT22;9477;51.414;10.362;2023-04-03T10:58:28;11.80;53.70
18694;DHT22;9477;51.414;10.362;2023-04-03T11:00:39;11.70;52.90
18694;DHT22;9477;51.414;10.362;2023-04-03T11:02:48;11.20;52.00
18694;DHT22;9477;51.414;10.362;2023-04-03T11:04:56;10.80;51.60
18694;DHT22;9477;51.414;10.362;2023-04-03T11:07:03;10.80;52.70
18694;DHT22;9477;51.414;10.362;2023-04-03T11:09:18;10.90;53.50
18694;DHT22;9477;51.414;10.362;2023-04-03T11:11:25;10.80;53.40
18694;DHT22;9477;51.414;10.362;2023-04-03T11:13:34;10.60;52.60
18694;DHT22;9477;51.414;10.362;2023-04-03T11:15:39;10.30;53.00
18694;DHT22;9477;51.414;10.362;2023-04-03T11:17:46;10.20;53.40
18694;DHT22;9477;51.414;10.362;2023-04-03T11:19:59;10.30;54.70
18694;DHT22;9477;51.414;10.362;2023-04-03T11:22:09;10.30;53.80
18694;DHT22;9477;51.414;10.362;2023-04-03T11:24:17;10.20;54.00
18694;DHT22;9477;51.414;10.362;2023-04-03T11:26:27;10.30;54.50
18694;DHT22;9477;51.414;10.362;2023-04-03T11:28:32;10.40;54.80
18694;DHT22;9477;51.414;10.362;2023-04-03T11:30:43;10.50;54.80
18694;DHT22;9477;51.414;10.362;2023-04-03T11:33:14;10.50;54.30
18694;DHT22;9477;51.414;10.362;2023-04-03T11:35:20;10.40;52.60
18694;DHT22;9477;51.414;10.362;2023-04-03T11:37:28;10.50;53.20
18694;DHT22;9477;51.414;10.362;2023-04-03T11:39:34;10.40;52.90
18694;DHT22;9477;51.414;10.362;2023-04-03T11:41:39;10.10;51.50
18694;DHT22;9477;51.414;10.362;2023-04-03T11:43:55;10.10;52.10
18694;DHT22;9477;51.414;10.362;2023-04-03T11:46:01;10.00;51.80
18694;DHT22;9477;51.414;10.362;2023-04-03T11:48:09;9.90;52.80
18694;DHT22;9477;51.414;10.362;2023-04-03T11:50:43;9.80;52.70
18694;DHT22;9477;51.414;10.362;2023-04-03T11:52:57;9.90;53.70
18694;DHT22;9477;51.414;10.362;2023-04-03T11:55:01;9.80;52.80
18694;DHT22;9477;51.414;10.362;2023-04-03T11:59:40;10.30;53.60
18694;DHT22;9477;51.414;10.362;2023-04-03T12:01:47;10.70;53.50
18694;DHT22;9477;51.414;10.362;2023-04-03T12:04:07;10.80;52.10
18694;DHT22;9477;51.414;10.362;2023-04-03T12:08:58;11.10;52.30
18694;DHT22;9477;51.414;10.362;2023-04-03T12:11:15;11.30;52.30
18694;DHT22;9477;51.414;10.362;2023-04-03T12:13:18;11.10;51.00
18694;DHT22;9477;51.414;10.362;2023-04-03T12:17:52;11.10;51.60
18694;DHT22;9477;51.414;10.362;2023-04-03T12:19:55;11.10;51.00
18694;DHT22;9477;51.414;10.362;2023-04-03T12:22:07;11.10;51.30
18694;DHT22;9477;51.414;10.362;2023-04-03T12:24:24;10.90;50.80
18694;DHT22;9477;51.414;10.362;2023-04-03T12:26:32;11.20;52.10
18694;DHT22;9477;51.414;10.362;2023-04-03T12:28:51;11.50;52.20
18694;DHT22;9477;51.414;10.362;2023-04-03T12:30:55;11.70;52.00
18694;DHT22;9477;51.414;10.362;2023-04-03T12:33:23;11.60;51.60
18694;DHT22;9477;51.414;10.362;2023-04-03T12:35:31;11.70;51.50
18694;DHT22;9477;51.414;10.362;2023-04-03T12:37:49;11.60;51.20
18694;DHT22;9477;51.414;10.362;2023-04-03T12:40:04;11.40;51.00
18694;DHT22;9477;51.414;10.362;2023-04-03T12:42:21;11.30;50.70
18694;DHT22;9477;51.414;10.362;2023-04-03T12:44:39;11.10;50.60
18694;DHT22;9477;51.414;10.362;2023-04-03T12:46:47;11.30;51.60
18694;DHT22;9477;51.414;10.362;2023-04-03T12:48:53;11.50;52.00
18694;DHT22;9477;51.414;10.362;2023-04-03T12:50:58;11.40;50.70
18694;DHT22;9477;51.414;10.362;2023-04-03T12:53:05;11.40;50.90
18694;DHT22;9477;51.414;10.362;2023-04-03T12:55:15;11.50;51.80
18694;DHT22;9477;51.414;10.362;2023-04-03T12:57:19;11.60;51.60
18694;DHT22;9477;51.414;10.362;2023-04-03T12:59:23;11.40;50.60
18694;DHT22;9477;51.414;10.362;2023-04-03T13:01:27;11.10;50.40
18694;DHT22;9477;51.414;10.362;2023-04-03T13:03:31;11.00;50.80
18694;DHT22;9477;51.414;10.362;2023-04-03T13:05:35;10.90;50.40
18694;DHT22;9477;51.414;10.362;2023-04-03T13:07:41;10.60;50.20
18694;DHT22;9477;51.414;10.362;2023-04-03T13:09:55;10.50;50.50
18694;DHT22;9477;51.414;10.362;2023-04-03T13:12:10;10.30;50.30
18694;DHT22;9477;51.414;10.362;2023-04-03T13:14:16;10.30;50.70
18694;DHT22;9477;51.414;10.362;2023-04-03T13:16:22;10.10;50.30
18694;DHT22;9477;51.414;10.362;2023-04-03T13:18:28;10.40;51.40
18694;DHT22;9477;51.414;10.362;2023-04-03T13:20:33;10.50;51.90
18694;DHT22;9477;51.414;10.362;2023-04-03T13:22:46;10.90;52.20
18694;DHT22;9477;51.414;10.362;2023-04-03T13:24:51;11.40;52.50
18694;DHT22;9477;51.414;10.362;2023-04-03T13:26:54;11.60;51.80
18694;DHT22;9477;51.414;10.362;2023-04-03T13:29:00;11.60;50.60
18694;DHT22;9477;51.414;10.362;2023-04-03T13:31:08;11.40;49.90